Time;durP1;ratioP1;P1;durP2;ratioP2;P2;SDS_P1;SDS_P2;PMS_P1;PMS_P2;Temp;Humidity;BMP_temperature;BMP_pressure;BME280_temperature;BME280_humidity;BME280_pressure;Samples;Min_cycle;Max_cycle;Signal;HPM_P1;HPM_P2
2023/06/25 00:00:54;;;;;;;10.68;7.07;;;19.20;99.90;;;;;;5010086;28;20061;-67
2023/06/25 00:03:20;;;;;;;12.70;6.78;;;19.20;99.90;;;;;;5010758;28;20132;-68
2023/06/25 00:05:46;;;;;;;11.82;6.50;;;19.10;99.90;;;;;;5003853;28;20042;-68
2023/06/25 00:08:12;;;;;;;10.23;6.95;;;19.10;99.90;;;;;;5008457;28;20129;-68
2023/06/25 00:10:37;;;;;;;11.35;7.93;;;19.10;99.90;;;;;;5016338;28;20072;-68
2023/06/25 00:13:03;;;;;;;12.15;7.03;;;19.10;99.90;;;;;;5025032;28;20038;-68
2023/06/25 00:15:29;;;;;;;15.13;7.70;;;19.00;99.90;;;;;;5011114;28;20164;-68
2023/06/25 00:17:55;;;;;;;13.13;7.00;;;19.00;99.90;;;;;;5010200;28;20123;-68
2023/06/25 00:20:23;;;;;;;12.77;7.63;;;19.00;99.90;;;;;;5010856;28;20414;-68
2023/06/25 00:22:49;;;;;;;11.60;7.05;;;19.00;99.90;;;;;;5007700;28;20440;-67
2023/06/25 00:25:16;;;;;;;10.65;7.43;;;19.00;99.90;;;;;;5010312;28;20411;-68
2023/06/25 00:27:47;;;;;;;10.93;6.80;;;18.90;99.90;;;;;;5008551;28;20054;-68
2023/06/25 00:30:14;;;;;;;13.85;7.00;;;18.90;99.90;;;;;;5009415;28;20069;-68
2023/06/25 00:32:41;;;;;;;10.15;7.05;;;18.90;99.90;;;;;;5008033;28;20743;-67
2023/06/25 00:35:07;;;;;;;9.50;6.72;;;18.80;99.90;;;;;;5008709;28;20554;-67
2023/06/25 00:37:36;;;;;;;10.32;6.88;;;18.80;99.90;;;;;;5008227;28;20287;-68
2023/06/25 00:40:04;;;;;;;12.15;7.15;;;18.80;99.90;;;;;;5009183;28;20058;-68
2023/06/25 00:42:42;;;;;;;11.30;7.32;;;18.80;99.90;;;;;;5006343;28;20046;-68
2023/06/25 00:45:13;;;;;;;11.45;7.13;;;18.70;99.90;;;;;;5008880;28;20136;-68
2023/06/25 00:47:41;;;;;;;10.20;7.10;;;18.70;99.90;;;;;;5006798;28;20121;-68
2023/06/25 00:50:12;;;;;;;10.65;6.90;;;18.70;99.90;;;;;;5008337;28;20049;-68
2023/06/25 00:52:39;;;;;;;9.77;6.20;;;18.60;99.90;;;;;;5007621;28;20081;-68
2023/06/25 00:55:08;;;;;;;10.98;7.18;;;18.70;99.90;;;;;;5006990;28;20037;-68
2023/06/25 00:57:35;;;;;;;11.98;7.40;;;18.60;99.90;;;;;;5008725;28;20046;-68
2023/06/25 01:00:01;;;;;;;11.05;6.70;;;18.60;99.90;;;;;;5009525;28;20506;-68
2023/06/25 01:03:00;;;;;;;10.80;6.90;;;18.60;99.90;;;;;;5007998;28;20050;-68
2023/06/25 01:05:50;;;;;;;9.68;6.55;;;18.60;99.90;;;;;;5004082;28;20054;-68
2023/06/25 01:08:17;;;;;;;9.93;6.45;;;18.50;99.90;;;;;;5006708;28;20042;-68
2023/06/25 01:10:44;;;;;;;8.68;5.75;;;18.50;99.90;;;;;;4989127;28;20416;-68
2023/06/25 01:13:09;;;;;;;10.52;6.68;;;18.50;99.90;;;;;;5006583;28;20514;-68
2023/06/25 01:15:35;;;;;;;10.27;6.90;;;18.40;99.90;;;;;;4990835;28;20046;-68
2023/06/25 01:18:03;;;;;;;9.20;6.53;;;18.40;99.90;;;;;;4990500;28;20125;-68
2023/06/25 01:20:29;;;;;;;11.27;6.78;;;18.40;99.90;;;;;;5007928;28;20137;-68
2023/06/25 01:22:55;;;;;;;9.50;6.28;;;18.40;99.90;;;;;;5006929;28;20129;-67
2023/06/25 01:25:21;;;;;;;9.65;6.40;;;18.30;99.90;;;;;;5008612;28;20115;-67
2023/06/25 01:27:50;;;;;;;10.57;7.30;;;18.30;99.90;;;;;;4999756;28;20049;-68
2023/06/25 01:30:17;;;;;;;11.93;7.60;;;18.30;99.90;;;;;;5007066;28;20108;-67
2023/06/25 01:32:44;;;;;;;11.18;7.57;;;18.30;99.90;;;;;;4998317;28;20061;-67
2023/06/25 01:35:14;;;;;;;11.80;8.25;;;18.30;99.90;;;;;;5007826;28;20085;-68
2023/06/25 01:37:41;;;;;;;11.90;7.95;;;18.30;99.90;;;;;;5005828;28;20046;-67
2023/06/25 01:40:08;;;;;;;13.82;7.75;;;18.30;99.90;;;;;;5008114;28;20041;-68
2023/06/25 01:42:34;;;;;;;11.50;8.20;;;18.30;99.90;;;;;;4988663;28;20072;-67
2023/06/25 01:45:00;;;;;;;11.77;8.27;;;18.30;99.90;;;;;;4990563;28;20057;-68
2023/06/25 01:47:26;;;;;;;12.50;8.07;;;18.30;99.90;;;;;;5005860;28;20042;-68
2023/06/25 01:49:51;;;;;;;13.23;8.35;;;18.30;99.90;;;;;;4990232;28;20519;-67
2023/06/25 01:52:17;;;;;;;12.07;8.13;;;18.30;99.90;;;;;;5007402;28;20502;-67
2023/06/25 01:54:43;;;;;;;12.93;8.27;;;18.30;99.90;;;;;;5005345;28;20054;-67
2023/06/25 01:57:08;;;;;;;11.68;8.23;;;18.20;99.90;;;;;;5005160;28;20556;-67
2023/06/25 01:59:34;;;;;;;13.18;8.57;;;18.20;99.90;;;;;;5007316;28;20038;-67
2023/06/25 02:02:03;;;;;;;14.32;9.02;;;18.20;99.90;;;;;;5005509;28;20074;-67
2023/06/25 02:04:29;;;;;;;11.60;8.10;;;18.20;99.90;;;;;;5004392;28;20499;-67
2023/06/25 02:06:55;;;;;;;12.95;8.35;;;18.20;99.90;;;;;;5007004;28;20046;-68
2023/06/25 02:09:22;;;;;;;15.95;9.02;;;18.20;99.90;;;;;;5006914;28;20804;-68
2023/06/25 02:11:48;;;;;;;15.05;8.38;;;18.20;99.90;;;;;;4990898;28;20422;-68
2023/06/25 02:14:14;;;;;;;15.23;9.40;;;18.20;99.90;;;;;;4990977;28;20100;-68
2023/06/25 02:16:40;;;;;;;14.60;8.93;;;18.20;99.90;;;;;;4990715;28;20073;-68
2023/06/25 02:19:05;;;;;;;13.52;9.25;;;18.20;99.90;;;;;;5007333;28;20632;-68
2023/06/25 02:21:31;;;;;;;15.05;9.63;;;18.10;99.90;;;;;;5008588;28;20647;-68
2023/06/25 02:23:57;;;;;;;15.57;8.80;;;18.10;99.90;;;;;;5007275;28;20730;-68
2023/06/25 02:26:23;;;;;;;13.38;9.20;;;18.10;99.90;;;;;;5005896;28;20057;-68
2023/06/25 02:28:49;;;;;;;13.43;9.15;;;18.10;99.90;;;;;;5006224;28;20049;-68
2023/06/25 02:31:14;;;;;;;12.75;8.55;;;18.10;99.90;;;;;;5007178;28;20050;-68
2023/06/25 02:33:40;;;;;;;13.07;8.63;;;18.10;99.90;;;;;;4989715;28;20072;-68
2023/06/25 02:36:06;;;;;;;13.02;9.00;;;18.00;99.90;;;;;;5006129;28;20041;-68
2023/06/25 02:38:32;;;;;;;11.20;8.40;;;18.00;99.90;;;;;;5005526;28;20128;-68
2023/06/25 02:40:58;;;;;;;12.18;8.52;;;18.00;99.90;;;;;;4994742;28;20046;-68
2023/06/25 02:43:23;;;;;;;13.98;8.30;;;18.00;99.90;;;;;;5007319;28;20059;-68
2023/06/25 02:45:49;;;;;;;12.60;8.68;;;18.00;99.90;;;;;;5007483;28;20108;-68
2023/06/25 02:48:15;;;;;;;14.45;9.63;;;17.90;99.90;;;;;;5007073;28;20120;-68
2023/06/25 02:50:40;;;;;;;15.05;9.38;;;17.90;99.90;;;;;;5006177;28;20046;-68
2023/06/25 02:53:06;;;;;;;12.38;9.10;;;17.90;99.90;;;;;;5006654;28;20140;-68
2023/06/25 02:55:32;;;;;;;12.95;8.52;;;17.90;99.90;;;;;;5007513;28;20691;-68
2023/06/25 02:57:57;;;;;;;15.15;9.35;;;17.90;99.90;;;;;;5005550;28;20049;-68
2023/06/25 03:00:23;;;;;;;15.30;9.45;;;17.90;99.90;;;;;;4991525;28;20057;-68
2023/06/25 03:02:49;;;;;;;15.52;9.98;;;17.80;99.90;;;;;;5009107;28;20041;-66
2023/06/25 03:05:15;;;;;;;13.20;9.07;;;17.80;99.90;;;;;;5007559;28;20183;-67
2023/06/25 03:07:55;;;;;;;14.05;9.15;;;17.80;99.90;;;;;;5008723;28;20038;-67
2023/06/25 03:10:26;;;;;;;16.23;10.00;;;17.80;99.90;;;;;;5008724;28;20120;-67
2023/06/25 03:12:52;;;;;;;13.20;9.40;;;17.80;99.90;;;;;;5008156;28;20125;-67
2023/06/25 03:15:17;;;;;;;14.77;9.10;;;17.80;99.90;;;;;;4990283;28;20092;-68
2023/06/25 03:17:44;;;;;;;15.13;9.65;;;17.80;99.90;;;;;;5013144;28;20041;-67
2023/06/25 03:20:10;;;;;;;15.82;10.05;;;17.80;99.90;;;;;;5031577;28;20056;-66
2023/06/25 03:22:36;;;;;;;16.77;10.68;;;17.70;99.90;;;;;;5028507;28;20049;-68
2023/06/25 03:25:03;;;;;;;17.15;11.45;;;17.70;99.90;;;;;;5010738;28;20069;-68
2023/06/25 03:27:30;;;;;;;18.08;11.00;;;17.70;99.90;;;;;;5007303;28;20491;-68
2023/06/25 03:29:55;;;;;;;15.82;10.25;;;17.70;99.90;;;;;;5010005;28;20042;-68
2023/06/25 03:32:21;;;;;;;15.93;10.30;;;17.70;99.90;;;;;;5009560;28;20391;-70
2023/06/25 03:34:47;;;;;;;16.38;10.18;;;17.70;99.90;;;;;;5006890;28;20115;-71
2023/06/25 03:37:13;;;;;;;16.65;11.32;;;17.70;99.90;;;;;;5008449;28;20352;-70
2023/06/25 03:39:38;;;;;;;15.77;10.73;;;17.70;99.90;;;;;;4992480;28;20048;-71
2023/06/25 03:42:04;;;;;;;16.00;10.55;;;17.70;99.90;;;;;;5010484;28;20764;-71
2023/06/25 03:44:30;;;;;;;17.67;10.80;;;17.70;99.90;;;;;;4993066;28;20042;-71
2023/06/25 03:46:56;;;;;;;16.15;11.15;;;17.70;99.90;;;;;;5009798;28;20132;-71
2023/06/25 03:49:22;;;;;;;18.58;11.20;;;17.70;99.90;;;;;;5007333;28;20515;-71
2023/06/25 03:51:47;;;;;;;19.98;11.23;;;17.60;99.90;;;;;;5009898;28;20050;-70
2023/06/25 03:54:13;;;;;;;17.25;11.20;;;17.60;99.90;;;;;;5025782;28;20052;-71
2023/06/25 03:56:39;;;;;;;16.13;10.88;;;17.60;99.90;;;;;;4992814;28;20054;-70
2023/06/25 03:59:04;;;;;;;15.88;11.30;;;17.60;99.90;;;;;;5009179;28;20038;-70
2023/06/25 04:01:30;;;;;;;19.50;11.57;;;17.60;99.90;;;;;;5007320;28;20053;-71
2023/06/25 04:03:56;;;;;;;19.55;11.43;;;17.60;99.90;;;;;;5008452;28;20462;-71
2023/06/25 04:06:21;;;;;;;15.70;11.32;;;17.60;99.90;;;;;;5009918;28;20052;-70
2023/06/25 04:08:47;;;;;;;17.33;11.55;;;17.60;99.90;;;;;;4989989;28;20144;-71
2023/06/25 04:11:13;;;;;;;19.42;11.27;;;17.60;99.90;;;;;;4993185;28;20107;-70
2023/06/25 04:13:38;;;;;;;17.70;11.77;;;17.60;99.90;;;;;;5008877;28;20038;-70
2023/06/25 04:16:06;;;;;;;18.67;11.43;;;17.70;99.90;;;;;;5009585;28;20058;-71
2023/06/25 04:18:32;;;;;;;16.70;11.57;;;17.70;99.90;;;;;;4993187;28;20879;-71
2023/06/25 04:20:58;;;;;;;18.02;10.27;;;17.70;99.90;;;;;;5008888;28;20132;-71
2023/06/25 04:23:24;;;;;;;16.88;11.20;;;17.70;99.90;;;;;;5010292;28;20073;-71
2023/06/25 04:25:50;;;;;;;18.83;11.45;;;17.70;99.90;;;;;;5009218;28;20042;-71
2023/06/25 04:28:16;;;;;;;17.98;11.25;;;17.70;99.90;;;;;;5009043;28;20046;-71
2023/06/25 04:30:42;;;;;;;19.63;11.90;;;17.70;99.90;;;;;;5008752;28;20042;-70
2023/06/25 04:33:08;;;;;;;18.63;12.55;;;17.70;99.90;;;;;;4991777;28;20041;-71
2023/06/25 04:35:34;;;;;;;16.80;11.48;;;17.70;99.90;;;;;;5008463;28;20085;-71
2023/06/25 04:37:59;;;;;;;18.05;11.98;;;17.80;99.90;;;;;;5006892;28;20526;-71
2023/06/25 04:40:26;;;;;;;15.52;11.65;;;18.00;99.90;;;;;;5024722;28;20546;-71
2023/06/25 04:42:53;;;;;;;18.20;10.20;;;18.20;99.90;;;;;;5008578;28;20045;-71
2023/06/25 04:45:19;;;;;;;14.32;10.05;;;18.40;99.90;;;;;;5008475;28;20053;-71
2023/06/25 04:47:44;;;;;;;14.75;11.00;;;18.60;99.90;;;;;;5006798;28;20041;-71
2023/06/25 04:50:10;;;;;;;15.77;10.38;;;18.90;99.90;;;;;;5009656;28;20470;-72
2023/06/25 04:52:36;;;;;;;18.30;10.52;;;19.10;99.90;;;;;;5007694;28;20053;-72
2023/06/25 04:55:02;;;;;;;15.90;10.52;;;19.30;99.90;;;;;;4991122;28;20502;-72
2023/06/25 04:57:27;;;;;;;17.10;9.65;;;19.50;99.90;;;;;;5008590;28;20133;-71
2023/06/25 04:59:53;;;;;;;13.25;9.13;;;19.70;99.90;;;;;;4991765;28;20402;-72
2023/06/25 05:02:19;;;;;;;14.40;9.35;;;19.90;99.90;;;;;;5006693;28;20045;-72
2023/06/25 05:04:45;;;;;;;12.23;8.35;;;20.10;99.90;;;;;;4990897;28;20037;-71
2023/06/25 05:07:11;;;;;;;13.15;9.45;;;20.30;99.90;;;;;;5007986;28;20041;-72
2023/06/25 05:09:36;;;;;;;11.10;8.10;;;20.50;99.90;;;;;;5009065;28;20391;-71
2023/06/25 05:12:03;;;;;;;13.23;8.85;;;20.70;99.90;;;;;;5009511;28;20080;-71
2023/06/25 05:14:30;;;;;;;13.60;8.73;;;20.90;99.90;;;;;;5008893;28;20074;-72
2023/06/25 05:16:56;;;;;;;12.57;8.38;;;21.10;99.90;;;;;;5002914;28;20132;-72
2023/06/25 05:19:22;;;;;;;11.90;8.20;;;21.30;99.90;;;;;;4984444;28;20061;-72
2023/06/25 05:21:47;;;;;;;13.50;8.35;;;21.40;99.90;;;;;;5001567;28;20507;-71
2023/06/25 05:24:13;;;;;;;13.88;8.43;;;21.60;99.90;;;;;;5004364;28;20060;-72
2023/06/25 05:26:39;;;;;;;12.18;8.02;;;21.80;99.90;;;;;;4988250;28;20120;-72
2023/06/25 05:29:05;;;;;;;10.98;8.27;;;22.00;99.90;;;;;;5004443;28;20049;-73
2023/06/25 05:31:31;;;;;;;12.75;8.65;;;22.10;99.90;;;;;;4991352;28;20149;-72
2023/06/25 05:33:56;;;;;;;11.43;8.23;;;22.20;99.90;;;;;;4975686;28;20200;-72
2023/06/25 05:36:23;;;;;;;11.85;8.40;;;22.30;99.90;;;;;;5004626;28;20066;-72
2023/06/25 05:38:51;;;;;;;11.52;7.70;;;22.20;99.90;;;;;;4991393;28;20057;-72
2023/06/25 05:41:17;;;;;;;10.43;7.20;;;22.00;99.90;;;;;;4990513;28;20034;-72
2023/06/25 05:43:43;;;;;;;12.35;8.02;;;21.80;99.90;;;;;;5003397;28;20131;-72
2023/06/25 05:46:13;;;;;;;13.75;8.05;;;21.60;99.90;;;;;;5008909;28;20151;-72
2023/06/25 05:48:43;;;;;;;11.85;7.82;;;21.40;99.90;;;;;;4990378;28;20050;-71
2023/06/25 05:51:09;;;;;;;16.50;7.43;;;21.30;99.90;;;;;;4991041;28;20648;-72
2023/06/25 05:53:43;;;;;;;11.77;7.63;;;21.20;99.90;;;;;;5007225;28;20136;-72
2023/06/25 05:56:09;;;;;;;12.68;7.57;;;21.20;99.90;;;;;;5006187;28;20077;-72
2023/06/25 05:58:35;;;;;;;12.73;7.35;;;21.10;99.90;;;;;;5008492;28;20038;-71
2023/06/25 06:01:05;;;;;;;9.40;7.05;;;21.00;99.90;;;;;;5008035;28;20038;-71
2023/06/25 06:03:30;;;;;;;10.82;7.18;;;21.00;99.90;;;;;;5007818;28;20518;-71
2023/06/25 06:05:57;;;;;;;11.55;6.22;;;21.10;99.90;;;;;;5006322;28;20095;-71
2023/06/25 06:08:24;;;;;;;10.52;6.82;;;21.40;99.90;;;;;;4999326;28;20713;-72
2023/06/25 06:10:49;;;;;;;10.07;6.68;;;21.70;99.90;;;;;;5006268;28;20038;-71
2023/06/25 06:13:16;;;;;;;10.02;5.30;;;22.00;99.90;;;;;;5007413;28;20099;-71
2023/06/25 06:15:42;;;;;;;8.15;5.00;;;22.30;99.90;;;;;;5006212;28;20532;-71
2023/06/25 06:18:08;;;;;;;8.05;5.50;;;22.60;99.90;;;;;;4985900;28;20046;-71
2023/06/25 06:20:34;;;;;;;7.55;5.10;;;22.80;99.90;;;;;;5005434;28;20405;-71
2023/06/25 06:23:01;;;;;;;8.52;5.10;;;22.90;99.90;;;;;;4987359;28;20045;-71
2023/06/25 06:25:27;;;;;;;8.18;4.72;;;23.00;99.90;;;;;;5003234;28;21551;-72
2023/06/25 06:27:54;;;;;;;9.32;4.80;;;22.90;99.90;;;;;;5008093;28;20053;-71
2023/06/25 06:30:23;;;;;;;7.75;4.90;;;22.70;99.90;;;;;;5005056;28;20057;-72
2023/06/25 06:32:49;;;;;;;7.95;4.90;;;22.50;99.90;;;;;;4985767;28;20054;-71
2023/06/25 06:35:15;;;;;;;8.60;5.43;;;22.40;99.90;;;;;;5001802;28;20550;-71
2023/06/25 06:37:40;;;;;;;9.25;5.22;;;22.20;99.90;;;;;;5006261;28;20053;-71
2023/06/25 06:40:06;;;;;;;9.75;4.88;;;22.10;99.90;;;;;;4992337;28;20132;-71
2023/06/25 06:42:34;;;;;;;10.15;5.38;;;22.10;99.90;;;;;;5006229;28;20045;-71
2023/06/25 06:45:00;;;;;;;11.55;5.28;;;22.00;99.90;;;;;;5006610;28;20568;-72
2023/06/25 06:47:26;;;;;;;8.90;5.45;;;22.00;99.90;;;;;;5006653;28;20046;-72
2023/06/25 06:49:52;;;;;;;8.80;5.30;;;21.90;99.90;;;;;;4989512;28;20044;-71
2023/06/25 06:52:23;;;;;;;11.07;5.63;;;21.90;99.90;;;;;;5003041;28;20511;-71
2023/06/25 06:54:49;;;;;;;11.15;6.28;;;21.90;99.90;;;;;;5003739;28;20053;-71
2023/06/25 06:57:14;;;;;;;11.30;5.90;;;21.90;99.90;;;;;;5006329;28;20170;-72
2023/06/25 06:59:40;;;;;;;11.13;6.97;;;21.90;99.90;;;;;;5006310;28;20054;-72
2023/06/25 07:02:06;;;;;;;10.52;6.80;;;21.90;99.90;;;;;;5005241;28;20152;-72
2023/06/25 07:04:31;;;;;;;9.60;6.25;;;21.90;99.90;;;;;;5004826;28;20111;-72
2023/06/25 07:06:57;;;;;;;9.07;5.95;;;21.90;99.90;;;;;;5005875;28;20057;-72
2023/06/25 07:09:25;;;;;;;10.60;6.53;;;22.00;99.90;;;;;;5004476;28;20041;-72
2023/06/25 07:11:52;;;;;;;11.23;6.55;;;22.00;99.90;;;;;;5002053;28;20053;-72
2023/06/25 07:14:17;;;;;;;10.77;7.47;;;22.00;99.90;;;;;;5001515;28;20133;-72
2023/06/25 07:16:44;;;;;;;10.63;7.22;;;22.10;99.90;;;;;;5005478;28;20117;-73
2023/06/25 07:19:10;;;;;;;10.65;6.97;;;22.20;99.90;;;;;;5000632;28;20057;-73
2023/06/25 07:21:36;;;;;;;9.13;6.60;;;22.30;99.90;;;;;;5004187;28;20046;-73
2023/06/25 07:24:02;;;;;;;9.25;6.68;;;22.40;99.90;;;;;;5006424;28;20085;-73
2023/06/25 07:26:28;;;;;;;10.88;6.55;;;22.60;99.90;;;;;;5005916;28;20088;-73
2023/06/25 07:28:54;;;;;;;12.63;7.15;;;22.70;99.90;;;;;;5000544;28;20537;-73
2023/06/25 07:31:20;;;;;;;10.88;7.55;;;22.80;99.90;;;;;;4996583;28;20068;-73
2023/06/25 07:33:45;;;;;;;12.57;7.13;;;22.90;99.90;;;;;;4997382;28;20501;-73
2023/06/25 07:36:11;;;;;;;10.43;6.35;;;23.10;99.90;;;;;;4988453;28;20391;-73
2023/06/25 07:38:37;;;;;;;11.00;6.72;;;23.20;99.90;;;;;;4996434;28;21486;-73
2023/06/25 07:41:02;;;;;;;10.85;7.07;;;23.20;99.90;;;;;;4984417;28;20065;-73
2023/06/25 07:43:29;;;;;;;11.23;6.70;;;23.40;99.90;;;;;;4991493;28;20053;-73
2023/06/25 07:45:55;;;;;;;9.27;6.28;;;23.50;99.90;;;;;;4995149;28;20041;-73
2023/06/25 07:48:20;;;;;;;10.70;6.30;;;23.70;99.90;;;;;;5000318;28;20057;-74
2023/06/25 07:50:46;;;;;;;10.77;6.43;;;23.80;99.90;;;;;;4986949;28;20042;-73
2023/06/25 07:53:12;;;;;;;10.98;7.15;;;23.90;99.90;;;;;;5000823;28;20043;-73
2023/06/25 07:55:41;;;;;;;12.25;6.93;;;24.00;99.90;;;;;;4988817;28;21026;-73
2023/06/25 07:58:08;;;;;;;10.50;6.43;;;24.10;99.90;;;;;;4981153;28;20123;-73
2023/06/25 08:00:34;;;;;;;11.50;6.85;;;24.20;99.90;;;;;;4968817;28;20357;-74
2023/06/25 08:03:00;;;;;;;12.00;7.65;;;24.30;99.90;;;;;;4984919;28;20077;-74
2023/06/25 08:05:26;;;;;;;9.75;6.97;;;24.40;99.90;;;;;;4995012;28;20042;-73
2023/06/25 08:07:52;;;;;;;10.88;7.47;;;24.50;99.90;;;;;;4997725;28;20134;-73
2023/06/25 08:10:17;;;;;;;10.45;6.85;;;24.60;99.90;;;;;;4997900;28;20124;-73
2023/06/25 08:12:43;;;;;;;10.07;6.93;;;24.70;99.90;;;;;;4998609;28;20034;-73
2023/06/25 08:15:09;;;;;;;10.30;6.65;;;24.90;99.90;;;;;;4996142;28;20145;-73
2023/06/25 08:17:35;;;;;;;7.93;5.97;;;25.00;99.90;;;;;;4994096;28;20038;-74
2023/06/25 08:20:01;;;;;;;11.95;6.88;;;25.10;99.90;;;;;;4990339;28;20069;-74
2023/06/25 08:22:26;;;;;;;8.35;6.50;;;25.20;99.90;;;;;;5001257;28;20136;-74
2023/06/25 08:24:55;;;;;;;10.30;7.05;;;25.30;99.90;;;;;;4991779;28;20511;-74
2023/06/25 08:27:21;;;;;;;8.68;6.18;;;25.40;99.90;;;;;;4992621;28;20046;-74
2023/06/25 08:29:46;;;;;;;9.98;6.60;;;25.40;99.90;;;;;;4994700;28;20092;-75
2023/06/25 08:32:12;;;;;;;10.27;6.68;;;25.50;99.90;;;;;;4995387;28;21649;-75
2023/06/25 08:34:38;;;;;;;8.93;5.90;;;25.60;99.90;;;;;;5002915;28;20049;-75
2023/06/25 08:37:04;;;;;;;10.45;6.82;;;25.60;99.90;;;;;;4993793;28;20060;-74
2023/06/25 08:39:30;;;;;;;9.00;6.07;;;25.80;99.90;;;;;;4987334;28;20034;-74
2023/06/25 08:41:56;;;;;;;13.77;6.22;;;25.90;99.90;;;;;;4985364;28;20053;-75
2023/06/25 08:44:22;;;;;;;10.35;7.00;;;25.90;99.90;;;;;;4985958;28;20054;-75
2023/06/25 08:46:49;;;;;;;15.63;6.40;;;26.00;99.90;;;;;;4988289;28;20678;-74
2023/06/25 08:49:16;;;;;;;8.73;5.63;;;26.00;99.90;;;;;;5001630;28;20045;-74
2023/06/25 08:51:42;;;;;;;8.13;5.40;;;26.20;99.90;;;;;;4986847;28;20386;-74
2023/06/25 08:54:09;;;;;;;10.82;6.43;;;26.20;99.90;;;;;;4985773;28;20049;-74
2023/06/25 08:56:35;;;;;;;9.45;5.57;;;26.30;99.90;;;;;;4987528;28;20439;-75
2023/06/25 08:59:00;;;;;;;8.95;5.93;;;26.40;99.90;;;;;;5006852;28;20418;-74
2023/06/25 09:01:26;;;;;;;10.45;5.00;;;26.60;99.90;;;;;;4988684;28;20037;-75
2023/06/25 09:03:53;;;;;;;10.38;4.70;;;26.70;99.90;;;;;;5001614;28;20192;-75
2023/06/25 09:06:19;;;;;;;6.90;4.63;;;26.70;99.90;;;;;;5000565;28;20060;-75
2023/06/25 09:08:45;;;;;;;7.78;4.70;;;26.80;99.90;;;;;;5002905;28;20683;-75
2023/06/25 09:11:11;;;;;;;10.13;5.40;;;26.90;99.90;;;;;;5004956;28;20077;-75
2023/06/25 09:13:38;;;;;;;9.00;4.95;;;26.90;99.90;;;;;;5006461;28;20042;-75
2023/06/25 09:16:07;;;;;;;8.40;5.38;;;27.00;99.90;;;;;;5002958;28;20049;-75
2023/06/25 09:18:32;;;;;;;8.63;4.30;;;27.00;99.90;;;;;;4989809;28;20069;-76
2023/06/25 09:21:07;;;;;;;7.00;4.57;;;27.10;99.90;;;;;;5004387;28;20050;-75
2023/06/25 09:23:33;;;;;;;8.10;5.00;;;27.20;99.90;;;;;;5005418;28;20038;-76
2023/06/25 09:26:09;;;;;;;9.10;4.82;;;27.30;99.90;;;;;;4988989;28;20042;-77
2023/06/25 09:28:42;;;;;;;8.75;5.47;;;27.30;99.90;;;;;;5004354;28;20050;-77
2023/06/25 09:31:08;;;;;;;8.00;5.07;;;27.40;99.90;;;;;;5006539;28;20057;-76
2023/06/25 09:33:34;;;;;;;7.30;4.88;;;27.50;99.90;;;;;;5005870;28;20050;-76
2023/06/25 09:36:03;;;;;;;7.30;4.47;;;27.50;99.90;;;;;;5000452;28;20161;-76
2023/06/25 09:38:30;;;;;;;9.32;5.25;;;27.50;99.90;;;;;;4981565;28;20058;-76
2023/06/25 09:41:00;;;;;;;7.13;4.75;;;27.60;99.90;;;;;;4996970;28;20041;-76
2023/06/25 09:43:27;;;;;;;8.98;5.18;;;27.60;99.90;;;;;;4987139;28;20057;-77
2023/06/25 09:45:54;;;;;;;6.93;4.60;;;27.70;99.90;;;;;;5002138;28;20045;-76
2023/06/25 09:48:26;;;;;;;8.73;4.78;;;27.80;99.90;;;;;;4994580;28;20050;-76
2023/06/25 09:50:56;;;;;;;7.53;4.50;;;27.80;99.90;;;;;;4994850;28;20140;-76
2023/06/25 09:53:23;;;;;;;8.48;4.78;;;27.90;99.90;;;;;;4998776;28;20566;-76
2023/06/25 09:55:49;;;;;;;8.25;4.90;;;27.90;99.90;;;;;;4996003;28;20049;-78
2023/06/25 09:58:17;;;;;;;7.05;4.28;;;28.00;99.90;;;;;;4995528;28;20467;-78
2023/06/25 10:00:43;;;;;;;6.70;4.68;;;28.00;99.90;;;;;;5000401;28;20129;-78
2023/06/25 10:03:11;;;;;;;7.13;4.72;;;28.10;99.90;;;;;;5001612;28;20555;-78
2023/06/25 10:05:37;;;;;;;7.78;4.45;;;28.20;99.90;;;;;;4997084;28;20060;-77
2023/06/25 10:08:04;;;;;;;6.47;4.30;;;28.30;99.90;;;;;;5002475;28;20038;-76
2023/06/25 10:10:29;;;;;;;9.35;4.90;;;28.30;99.90;;;;;;4978788;28;20044;-77
2023/06/25 10:12:55;;;;;;;10.65;5.22;;;28.30;99.90;;;;;;4997545;28;20042;-78
2023/06/25 10:15:35;;;;;;;7.50;4.85;;;28.40;99.30;;;;;;4994685;28;20507;-77
2023/06/25 10:18:05;;;;;;;8.17;4.73;;;28.40;99.40;;;;;;4989328;28;20053;-77
2023/06/25 10:20:36;;;;;;;8.95;4.20;;;28.40;99.20;;;;;;5003419;28;20634;-80
2023/06/25 10:23:10;;;;;;;9.60;4.72;;;28.40;99.60;;;;;;4992794;28;20058;-77
2023/06/25 10:25:38;;;;;;;8.85;4.03;;;28.50;98.60;;;;;;4978633;28;20074;-76
2023/06/25 10:28:12;;;;;;;8.23;4.30;;;28.50;99.10;;;;;;4982509;28;20033;-76
2023/06/25 10:30:49;;;;;;;7.03;4.10;;;28.50;99.20;;;;;;4995713;28;20064;-76
2023/06/25 10:33:15;;;;;;;6.63;4.20;;;28.60;98.60;;;;;;4988222;28;20056;-77
2023/06/25 10:35:44;;;;;;;6.57;4.07;;;28.60;98.90;;;;;;4983358;28;20129;-79
2023/06/25 10:38:10;;;;;;;6.40;4.25;;;28.70;97.60;;;;;;4990351;28;20046;-76
2023/06/25 10:40:37;;;;;;;6.03;3.58;;;28.70;98.00;;;;;;4978178;28;20038;-77
2023/06/25 10:43:03;;;;;;;9.68;3.95;;;28.80;97.60;;;;;;4985330;28;20076;-77
2023/06/25 10:45:29;;;;;;;9.48;4.55;;;28.80;98.00;;;;;;4990037;28;20050;-77
2023/06/25 10:48:02;;;;;;;6.88;4.30;;;28.90;97.90;;;;;;4983871;28;20058;-78
2023/06/25 10:50:33;;;;;;;8.63;4.60;;;28.90;97.60;;;;;;4984560;28;20452;-77
2023/06/25 10:52:59;;;;;;;;;;;28.90;96.90;;;;;;4987001;28;20053;-78
2023/06/25 10:55:25;;;;;;;8.13;4.25;;;28.90;96.20;;;;;;4994295;28;19928;-78
2023/06/25 10:57:55;;;;;;;9.77;4.30;;;28.80;96.90;;;;;;4991306;28;20645;-78
2023/06/25 11:00:27;;;;;;;5.78;3.75;;;28.80;97.00;;;;;;4990967;28;20100;-78
2023/06/25 11:02:54;;;;;;;5.85;3.70;;;28.90;96.80;;;;;;4989907;28;20050;-77
2023/06/25 11:05:22;;;;;;;7.55;3.55;;;29.00;95.90;;;;;;4980264;28;20712;-77
2023/06/25 11:07:54;;;;;;;6.07;3.70;;;29.00;96.20;;;;;;4980128;28;20042;-78
2023/06/25 11:10:24;;;;;;;7.85;4.00;;;29.10;96.60;;;;;;4988420;28;20057;-77
2023/06/25 11:12:51;;;;;;;5.68;3.50;;;29.10;95.80;;;;;;4989008;28;20529;-77
2023/06/25 11:15:17;;;;;;;5.60;3.80;;;29.20;96.90;;;;;;4993654;28;20070;-78
2023/06/25 11:17:52;;;;;;;5.38;3.30;;;29.20;96.40;;;;;;4989882;28;20594;-77
2023/06/25 11:20:24;;;;;;;7.75;3.58;;;29.30;95.80;;;;;;4977198;28;20855;-76
2023/06/25 11:22:50;;;;;;;7.13;3.50;;;29.40;95.90;;;;;;4969650;28;20058;-77
2023/06/25 11:25:20;;;;;;;7.32;3.35;;;29.40;96.00;;;;;;4973747;28;20042;-76
2023/06/25 11:27:46;;;;;;;7.00;3.10;;;29.50;94.50;;;;;;4987396;28;20473;-77
2023/06/25 11:30:12;;;;;;;6.70;3.10;;;29.50;94.80;;;;;;4992416;28;20136;-77
2023/06/25 11:32:39;;;;;;;5.10;3.08;;;29.60;94.50;;;;;;4991175;28;20855;-77
2023/06/25 11:35:24;;;;;;;19.80;3.20;;;29.60;93.50;;;;;;4996400;28;20053;-78
2023/06/25 11:37:50;;;;;;;5.57;2.83;;;29.70;94.80;;;;;;4997819;28;20050;-78
2023/06/25 11:40:27;;;;;;;6.50;3.20;;;29.70;94.10;;;;;;4999084;28;20056;-77
2023/06/25 11:42:53;;;;;;;5.20;2.78;;;29.80;93.60;;;;;;4994590;28;20042;-77
2023/06/25 11:45:20;;;;;;;7.75;2.92;;;29.80;93.00;;;;;;4979097;28;20046;-68
2023/06/25 11:47:50;;;;;;;5.35;2.80;;;29.90;93.30;;;;;;4991676;28;20156;-67
2023/06/25 11:50:17;;;;;;;7.25;3.25;;;29.90;92.70;;;;;;4989915;28;20068;-67
2023/06/25 11:52:44;;;;;;;5.97;2.95;;;29.90;93.30;;;;;;5001848;28;20053;-68
2023/06/25 11:55:11;;;;;;;6.45;3.30;;;30.00;91.00;;;;;;4992539;28;20045;-67
2023/06/25 11:57:38;;;;;;;6.38;3.40;;;30.00;91.10;;;;;;4995284;28;20050;-68
2023/06/25 12:00:05;;;;;;;7.47;3.53;;;30.00;92.10;;;;;;4996324;28;20056;-69
2023/06/25 12:02:31;;;;;;;5.35;2.78;;;30.00;91.90;;;;;;4993714;28;20057;-69
2023/06/25 12:04:57;;;;;;;7.10;2.97;;;30.00;92.40;;;;;;4998047;28;20099;-69
2023/06/25 12:07:22;;;;;;;5.63;2.83;;;30.10;91.50;;;;;;4996605;28;20053;-77
2023/06/25 12:09:48;;;;;;;6.60;3.53;;;30.10;90.80;;;;;;4995189;28;20038;-76
2023/06/25 12:12:14;;;;;;;6.22;3.45;;;30.10;90.30;;;;;;4997160;28;20716;-75
2023/06/25 12:14:40;;;;;;;6.47;3.33;;;30.20;90.60;;;;;;4992179;28;20064;-75
2023/06/25 12:17:05;;;;;;;6.50;3.58;;;30.20;91.30;;;;;;5011860;28;20045;-76
2023/06/25 12:19:31;;;;;;;6.28;2.85;;;30.30;90.40;;;;;;4992183;28;20054;-75
2023/06/25 12:21:58;;;;;;;4.70;2.60;;;30.30;90.90;;;;;;4997397;28;20049;-76
2023/06/25 12:24:24;;;;;;;7.45;2.90;;;30.30;91.20;;;;;;4986525;28;20092;-75
2023/06/25 12:26:50;;;;;;;5.10;3.13;;;30.30;91.00;;;;;;4979635;28;20049;-75
2023/06/25 12:29:16;;;;;;;5.55;3.10;;;30.30;89.20;;;;;;4993918;28;20070;-76
2023/06/25 12:31:41;;;;;;;6.57;3.50;;;30.40;89.20;;;;;;4991846;28;20041;-76
2023/06/25 12:34:07;;;;;;;5.60;3.17;;;30.40;85.20;;;;;;4992250;28;20498;-67
2023/06/25 12:36:33;;;;;;;6.25;3.28;;;30.40;87.80;;;;;;4985850;28;20046;-68
2023/06/25 12:39:00;;;;;;;5.65;3.13;;;30.40;88.80;;;;;;4993319;28;20095;-67